Observations for Trim Market St
| Time | AQI | Temp °C | Hum % | Pres Pa | CO μg/m³ | H₂S μg/m³ | NO μg/m³ | NO₂ μg/m³ | O₃ μg/m³ | SO₂ μg/m³ | PM1 μg/m³ | PM2.5 μg/m³ | PM10 μg/m³ |
|---|---|---|---|---|---|---|---|---|---|---|---|---|---|
| Friday 10 July 2026 | |||||||||||||
| 19:20 | 1 | 28.7 | 46 | 60,752 | 0 | 2.91 | 0 | 15.14 | 10.42 | 0 | 1.43 | 3.64 | 3.69 |
| 19:18 | 1 | 28.8 | 46 | 60,878 | 0 | 2.26 | 0 | 10.22 | 18.92 | 0 | 2.85 | 5.21 | 5.99 |
| 19:15 | 1 | 28.9 | 46 | 61,160 | 0 | 5.84 | 0 | 14.11 | 18.8 | 0 | 2.85 | 5.21 | 5.99 |
| 19:14 | 1 | 28.9 | 46 | 61,342 | 0 | 4.37 | 0 | 10.12 | 20.83 | 0 | 1.43 | 4.18 | 4.45 |
| 19:12 | 1 | 28.9 | 46 | 61,532 | 0 | 3.94 | 0 | 10.96 | 19.92 | 0 | 1.43 | 4.72 | 5.21 |
| 19:08 | 1 | 29 | 46 | 61,812 | 0 | 5.43 | 0 | 15.26 | 14.67 | 0 | 2.85 | 4.72 | 5.21 |
| 19:02 | 1 | 29.1 | 45 | 62,150 | 0 | 5.61 | 0 | 15.97 | 15.31 | 0 | 2.14 | 5.26 | 5.98 |
| 19:01 | 1 | 29.1 | 45 | 62,217 | 0 | 5.05 | 0 | 12.78 | 17.87 | 0 | 2.14 | 5.27 | 7.53 |
| 18:57 | 1 | 29.2 | 45 | 62,395 | 0 | 4.35 | 0 | 10.09 | 17.47 | 0 | 2.85 | 4.76 | 5.2 |
| 18:56 | 1 | 29.2 | 45 | 62,385 | 0 | 7.99 | 0 | 12.39 | 19.54 | 0 | 2.14 | 5.28 | 5.97 |
| 18:55 | 1 | 29.2 | 45 | 62,452 | 0.06 | 14.89 | 0 | 11.7 | 21.02 | 0 | 1.43 | 4.24 | 4.42 |
| 18:54 | 1 | 29.3 | 45 | 62,503 | 3.31 | 31.54 | 0 | 14.58 | 13.45 | 0 | 2.14 | 4.25 | 4.42 |
| 18:53 | 1 | 29.3 | 45 | 62,645 | 0.19 | 13.55 | 0 | 18.29 | 17.53 | 0 | 4.28 | 6.34 | 7.53 |
| 18:52 | 1 | 29.4 | 44 | 62,762 | 0 | 11.56 | 0 | 17.49 | 18.54 | 0 | 3.56 | 5.83 | 8.31 |
| 18:51 | 1 | 29.4 | 44 | 62,919 | 0.21 | 11.21 | 0 | 18 | 13.71 | 0 | 2.85 | 5.31 | 5.97 |
| 18:50 | 1 | 29.4 | 44 | 63,039 | 0 | 6.9 | 0 | 15.01 | 16.87 | 0 | 2.85 | 5.84 | 6.75 |
| 18:49 | 1 | 29.5 | 44 | 63,100 | 0 | 5.99 | 0 | 13.9 | 15.49 | 0 | 3.56 | 6.37 | 8.31 |
| 18:48 | 1 | 29.5 | 44 | 63,139 | 0 | 6.34 | 0 | 12.2 | 20.22 | 0 | 1.43 | 4.27 | 4.4 |
| 18:47 | 1 | 29.5 | 44 | 63,120 | 0 | 7.17 | 0 | 14.71 | 15.18 | 0 | 2.85 | 5.33 | 5.96 |
| 18:46 | 1 | 29.5 | 44 | 63,162 | 0 | 7.73 | 0 | 21.21 | 10.8 | 0 | 2.85 | 5.85 | 6.75 |